sensor_id;sensor_type;location;lat;lon;timestamp;temperature;humidity
3770;DHT22;1900;48.890;9.190;2023-05-16T00:02:04;19.20;55.50
3770;DHT22;1900;48.890;9.190;2023-05-16T00:04:30;19.20;55.50
3770;DHT22;1900;48.890;9.190;2023-05-16T00:06:57;19.10;55.40
3770;DHT22;1900;48.890;9.190;2023-05-16T00:09:23;19.10;55.30
3770;DHT22;1900;48.890;9.190;2023-05-16T00:11:49;19.10;55.40
3770;DHT22;1900;48.890;9.190;2023-05-16T00:14:14;19.10;56.00
3770;DHT22;1900;48.890;9.190;2023-05-16T00:16:40;19.10;55.50
3770;DHT22;1900;48.890;9.190;2023-05-16T00:19:06;19.10;55.50
3770;DHT22;1900;48.890;9.190;2023-05-16T00:21:32;19.00;55.50
3770;DHT22;1900;48.890;9.190;2023-05-16T00:23:58;19.00;55.50
3770;DHT22;1900;48.890;9.190;2023-05-16T00:26:23;19.00;55.50
3770;DHT22;1900;48.890;9.190;2023-05-16T00:28:49;19.00;55.50
3770;DHT22;1900;48.890;9.190;2023-05-16T00:31:14;19.00;55.60
3770;DHT22;1900;48.890;9.190;2023-05-16T00:33:40;19.00;55.60
3770;DHT22;1900;48.890;9.190;2023-05-16T00:36:06;19.00;55.60
3770;DHT22;1900;48.890;9.190;2023-05-16T00:38:32;19.00;55.60
3770;DHT22;1900;48.890;9.190;2023-05-16T00:40:58;18.90;55.60
3770;DHT22;1900;48.890;9.190;2023-05-16T00:43:24;18.90;55.60
3770;DHT22;1900;48.890;9.190;2023-05-16T00:45:50;19.00;55.70
3770;DHT22;1900;48.890;9.190;2023-05-16T00:48:15;18.90;55.60
3770;DHT22;1900;48.890;9.190;2023-05-16T00:50:41;18.90;55.50
3770;DHT22;1900;48.890;9.190;2023-05-16T00:53:07;18.90;55.50
3770;DHT22;1900;48.890;9.190;2023-05-16T00:55:35;18.80;55.50
3770;DHT22;1900;48.890;9.190;2023-05-16T00:58:01;18.80;55.50
3770;DHT22;1900;48.890;9.190;2023-05-16T01:00:27;18.80;55.60
3770;DHT22;1900;48.890;9.190;2023-05-16T01:02:52;18.80;55.60
3770;DHT22;1900;48.890;9.190;2023-05-16T01:05:19;18.80;55.60
3770;DHT22;1900;48.890;9.190;2023-05-16T01:07:45;18.80;55.60
3770;DHT22;1900;48.890;9.190;2023-05-16T01:10:11;18.70;55.30
3770;DHT22;1900;48.890;9.190;2023-05-16T01:13:00;18.70;55.40
3770;DHT22;1900;48.890;9.190;2023-05-16T01:15:39;18.60;55.50
3770;DHT22;1900;48.890;9.190;2023-05-16T01:18:19;18.60;55.40
3770;DHT22;1900;48.890;9.190;2023-05-16T01:20:57;18.60;55.60
3770;DHT22;1900;48.890;9.190;2023-05-16T01:26:22;18.60;55.70
3770;DHT22;1900;48.890;9.190;2023-05-16T01:28:50;18.50;55.70
3770;DHT22;1900;48.890;9.190;2023-05-16T01:31:18;18.50;55.70
3770;DHT22;1900;48.890;9.190;2023-05-16T01:33:44;18.50;55.70
3770;DHT22;1900;48.890;9.190;2023-05-16T01:42:02;18.50;55.80
3770;DHT22;1900;48.890;9.190;2023-05-16T01:47:01;18.50;55.80
3770;DHT22;1900;48.890;9.190;2023-05-16T01:52:08;18.50;55.80
3770;DHT22;1900;48.890;9.190;2023-05-16T01:54:37;18.40;55.60
3770;DHT22;1900;48.890;9.190;2023-05-16T01:57:05;18.40;55.70
3770;DHT22;1900;48.890;9.190;2023-05-16T01:59:33;18.40;55.70
3770;DHT22;1900;48.890;9.190;2023-05-16T02:01:59;18.30;55.50
3770;DHT22;1900;48.890;9.190;2023-05-16T02:04:25;18.30;55.60
3770;DHT22;1900;48.890;9.190;2023-05-16T02:06:51;18.30;55.60
3770;DHT22;1900;48.890;9.190;2023-05-16T02:09:17;18.30;55.70
3770;DHT22;1900;48.890;9.190;2023-05-16T02:11:43;18.30;55.70
3770;DHT22;1900;48.890;9.190;2023-05-16T02:14:08;18.30;55.60
3770;DHT22;1900;48.890;9.190;2023-05-16T02:16:35;18.20;55.60
3770;DHT22;1900;48.890;9.190;2023-05-16T02:19:00;18.20;55.60
3770;DHT22;1900;48.890;9.190;2023-05-16T02:21:26;18.10;55.50
3770;DHT22;1900;48.890;9.190;2023-05-16T02:23:52;18.20;55.60
3770;DHT22;1900;48.890;9.190;2023-05-16T02:26:17;18.20;55.70
3770;DHT22;1900;48.890;9.190;2023-05-16T02:28:43;18.10;55.70
3770;DHT22;1900;48.890;9.190;2023-05-16T02:31:09;18.10;55.70
3770;DHT22;1900;48.890;9.190;2023-05-16T02:33:35;18.10;55.90
3770;DHT22;1900;48.890;9.190;2023-05-16T02:36:01;18.10;55.70
3770;DHT22;1900;48.890;9.190;2023-05-16T02:38:26;18.10;55.70
3770;DHT22;1900;48.890;9.190;2023-05-16T02:40:54;18.00;55.60
3770;DHT22;1900;48.890;9.190;2023-05-16T02:43:20;18.00;55.40
3770;DHT22;1900;48.890;9.190;2023-05-16T02:45:46;17.90;55.30
3770;DHT22;1900;48.890;9.190;2023-05-16T02:48:15;17.90;55.40
3770;DHT22;1900;48.890;9.190;2023-05-16T02:50:41;17.90;55.50
3770;DHT22;1900;48.890;9.190;2023-05-16T02:53:07;17.90;55.60
3770;DHT22;1900;48.890;9.190;2023-05-16T02:55:32;17.80;55.40
3770;DHT22;1900;48.890;9.190;2023-05-16T02:57:58;17.80;55.40
3770;DHT22;1900;48.890;9.190;2023-05-16T03:00:24;17.80;55.50
3770;DHT22;1900;48.890;9.190;2023-05-16T03:02:50;17.70;55.50
3770;DHT22;1900;48.890;9.190;2023-05-16T03:05:15;17.70;55.60
3770;DHT22;1900;48.890;9.190;2023-05-16T03:07:41;17.70;55.80
3770;DHT22;1900;48.890;9.190;2023-05-16T03:10:07;17.70;55.80
3770;DHT22;1900;48.890;9.190;2023-05-16T03:12:33;17.70;55.90
3770;DHT22;1900;48.890;9.190;2023-05-16T03:14:58;17.70;55.90
3770;DHT22;1900;48.890;9.190;2023-05-16T03:17:24;17.70;55.90
3770;DHT22;1900;48.890;9.190;2023-05-16T03:19:50;17.70;56.00
3770;DHT22;1900;48.890;9.190;2023-05-16T03:22:16;17.70;55.90
3770;DHT22;1900;48.890;9.190;2023-05-16T03:24:41;17.70;55.90
3770;DHT22;1900;48.890;9.190;2023-05-16T03:27:10;17.70;56.00
3770;DHT22;1900;48.890;9.190;2023-05-16T03:29:36;17.70;56.00
3770;DHT22;1900;48.890;9.190;2023-05-16T03:32:02;17.70;56.00
3770;DHT22;1900;48.890;9.190;2023-05-16T03:34:28;17.70;56.10
3770;DHT22;1900;48.890;9.190;2023-05-16T03:36:53;17.70;55.90
3770;DHT22;1900;48.890;9.190;2023-05-16T03:39:19;17.70;56.60
3770;DHT22;1900;48.890;9.190;2023-05-16T03:41:45;17.60;55.90
3770;DHT22;1900;48.890;9.190;2023-05-16T03:44:10;17.60;56.00
3770;DHT22;1900;48.890;9.190;2023-05-16T03:46:36;17.60;56.10
3770;DHT22;1900;48.890;9.190;2023-05-16T03:49:02;17.60;56.30
3770;DHT22;1900;48.890;9.190;2023-05-16T03:51:27;17.70;56.40
3770;DHT22;1900;48.890;9.190;2023-05-16T03:53:54;17.70;56.40
3770;DHT22;1900;48.890;9.190;2023-05-16T03:56:20;17.60;56.10
3770;DHT22;1900;48.890;9.190;2023-05-16T03:58:46;17.70;56.30
3770;DHT22;1900;48.890;9.190;2023-05-16T04:01:12;17.70;56.40
3770;DHT22;1900;48.890;9.190;2023-05-16T04:03:38;17.70;56.50
3770;DHT22;1900;48.890;9.190;2023-05-16T04:06:06;17.70;56.40
3770;DHT22;1900;48.890;9.190;2023-05-16T04:08:32;17.70;56.60
3770;DHT22;1900;48.890;9.190;2023-05-16T04:10:58;17.70;56.40
3770;DHT22;1900;48.890;9.190;2023-05-16T04:13:24;17.80;56.50
3770;DHT22;1900;48.890;9.190;2023-05-16T04:15:50;17.70;56.50
3770;DHT22;1900;48.890;9.190;2023-05-16T04:18:15;17.80;56.60
3770;DHT22;1900;48.890;9.190;2023-05-16T04:20:42;17.80;56.70
3770;DHT22;1900;48.890;9.190;2023-05-16T04:23:08;17.80;56.70
3770;DHT22;1900;48.890;9.190;2023-05-16T04:25:36;17.80;56.70
3770;DHT22;1900;48.890;9.190;2023-05-16T04:28:02;17.80;56.70
3770;DHT22;1900;48.890;9.190;2023-05-16T04:30:27;17.80;56.60
3770;DHT22;1900;48.890;9.190;2023-05-16T04:32:53;17.80;56.60
3770;DHT22;1900;48.890;9.190;2023-05-16T04:35:19;17.90;56.80
3770;DHT22;1900;48.890;9.190;2023-05-16T04:37:46;17.80;56.80
3770;DHT22;1900;48.890;9.190;2023-05-16T04:40:12;17.90;56.90
3770;DHT22;1900;48.890;9.190;2023-05-16T04:42:38;17.90;56.90
3770;DHT22;1900;48.890;9.190;2023-05-16T04:45:05;17.90;56.90
3770;DHT22;1900;48.890;9.190;2023-05-16T04:47:31;17.90;56.90
3770;DHT22;1900;48.890;9.190;2023-05-16T04:49:57;17.90;56.90
3770;DHT22;1900;48.890;9.190;2023-05-16T04:52:22;18.00;57.00
3770;DHT22;1900;48.890;9.190;2023-05-16T04:54:51;18.00;57.00
3770;DHT22;1900;48.890;9.190;2023-05-16T04:57:17;18.00;57.00
3770;DHT22;1900;48.890;9.190;2023-05-16T04:59:43;18.00;57.00
3770;DHT22;1900;48.890;9.190;2023-05-16T05:02:08;18.00;57.00
3770;DHT22;1900;48.890;9.190;2023-05-16T05:04:34;18.10;57.10
3770;DHT22;1900;48.890;9.190;2023-05-16T05:07:00;18.00;57.60
3770;DHT22;1900;48.890;9.190;2023-05-16T05:09:26;18.00;56.90
3770;DHT22;1900;48.890;9.190;2023-05-16T05:11:51;18.00;57.50
3770;DHT22;1900;48.890;9.190;2023-05-16T05:14:17;18.00;57.00
3770;DHT22;1900;48.890;9.190;2023-05-16T05:16:43;18.00;56.80
3770;DHT22;1900;48.890;9.190;2023-05-16T05:19:08;18.00;56.90
3770;DHT22;1900;48.890;9.190;2023-05-16T05:21:34;18.00;57.00
3770;DHT22;1900;48.890;9.190;2023-05-16T05:24:00;17.90;57.00
3770;DHT22;1900;48.890;9.190;2023-05-16T05:26:26;18.00;57.10
3770;DHT22;1900;48.890;9.190;2023-05-16T05:28:53;18.00;57.10
3770;DHT22;1900;48.890;9.190;2023-05-16T05:31:19;18.00;57.20
3770;DHT22;1900;48.890;9.190;2023-05-16T05:33:44;18.00;57.30
3770;DHT22;1900;48.890;9.190;2023-05-16T05:36:10;18.00;57.20
3770;DHT22;1900;48.890;9.190;2023-05-16T05:38:36;18.00;57.20
3770;DHT22;1900;48.890;9.190;2023-05-16T05:41:03;18.00;57.20
3770;DHT22;1900;48.890;9.190;2023-05-16T05:43:29;18.00;57.20
3770;DHT22;1900;48.890;9.190;2023-05-16T05:45:55;18.00;57.10
3770;DHT22;1900;48.890;9.190;2023-05-16T05:48:20;18.00;57.20
3770;DHT22;1900;48.890;9.190;2023-05-16T05:50:46;18.00;57.20
3770;DHT22;1900;48.890;9.190;2023-05-16T05:53:12;18.10;57.40
3770;DHT22;1900;48.890;9.190;2023-05-16T05:55:38;18.00;57.20
3770;DHT22;1900;48.890;9.190;2023-05-16T05:58:06;18.00;57.20
3770;DHT22;1900;48.890;9.190;2023-05-16T06:00:31;18.00;57.30
3770;DHT22;1900;48.890;9.190;2023-05-16T06:02:57;18.00;57.40
3770;DHT22;1900;48.890;9.190;2023-05-16T06:05:23;18.00;57.20
3770;DHT22;1900;48.890;9.190;2023-05-16T06:07:48;18.00;57.30
3770;DHT22;1900;48.890;9.190;2023-05-16T06:10:14;18.00;57.30
3770;DHT22;1900;48.890;9.190;2023-05-16T06:12:40;18.00;57.40
3770;DHT22;1900;48.890;9.190;2023-05-16T06:15:06;18.00;57.50
3770;DHT22;1900;48.890;9.190;2023-05-16T06:17:32;18.00;57.50
3770;DHT22;1900;48.890;9.190;2023-05-16T06:19:58;18.10;57.70
3770;DHT22;1900;48.890;9.190;2023-05-16T06:22:23;18.10;57.70
3770;DHT22;1900;48.890;9.190;2023-05-16T06:24:49;18.10;57.70
3770;DHT22;1900;48.890;9.190;2023-05-16T06:27:15;18.10;57.70
3770;DHT22;1900;48.890;9.190;2023-05-16T06:29:40;18.10;57.70
3770;DHT22;1900;48.890;9.190;2023-05-16T06:32:06;18.10;57.70
3770;DHT22;1900;48.890;9.190;2023-05-16T06:34:32;18.10;57.60
3770;DHT22;1900;48.890;9.190;2023-05-16T06:36:58;18.10;57.60
3770;DHT22;1900;48.890;9.190;2023-05-16T06:39:24;18.10;57.70
3770;DHT22;1900;48.890;9.190;2023-05-16T06:41:50;18.10;57.80
3770;DHT22;1900;48.890;9.190;2023-05-16T06:44:16;18.10;57.90
3770;DHT22;1900;48.890;9.190;2023-05-16T06:46:41;18.10;57.80
3770;DHT22;1900;48.890;9.190;2023-05-16T06:49:07;18.10;57.90
3770;DHT22;1900;48.890;9.190;2023-05-16T06:51:33;18.10;57.90
3770;DHT22;1900;48.890;9.190;2023-05-16T06:53:59;18.10;58.00
3770;DHT22;1900;48.890;9.190;2023-05-16T06:56:24;18.10;58.00
3770;DHT22;1900;48.890;9.190;2023-05-16T06:58:50;18.10;57.90
3770;DHT22;1900;48.890;9.190;2023-05-16T07:01:16;18.10;57.80
3770;DHT22;1900;48.890;9.190;2023-05-16T07:03:41;18.10;57.90
3770;DHT22;1900;48.890;9.190;2023-05-16T07:06:07;18.10;57.80
3770;DHT22;1900;48.890;9.190;2023-05-16T07:08:33;18.10;57.90
3770;DHT22;1900;48.890;9.190;2023-05-16T07:11:01;18.00;57.80
3770;DHT22;1900;48.890;9.190;2023-05-16T07:13:27;18.00;57.80
3770;DHT22;1900;48.890;9.190;2023-05-16T07:15:52;18.00;57.90
3770;DHT22;1900;48.890;9.190;2023-05-16T07:18:18;18.00;57.90
3770;DHT22;1900;48.890;9.190;2023-05-16T07:20:44;18.00;57.80
3770;DHT22;1900;48.890;9.190;2023-05-16T07:23:10;18.00;57.80
3770;DHT22;1900;48.890;9.190;2023-05-16T07:25:36;17.90;57.80
3770;DHT22;1900;48.890;9.190;2023-05-16T07:28:02;17.90;57.80
3770;DHT22;1900;48.890;9.190;2023-05-16T07:30:28;17.90;57.90
3770;DHT22;1900;48.890;9.190;2023-05-16T07:32:53;17.90;57.90
3770;DHT22;1900;48.890;9.190;2023-05-16T07:35:19;18.00;58.00
3770;DHT22;1900;48.890;9.190;2023-05-16T07:37:45;17.90;58.00
3770;DHT22;1900;48.890;9.190;2023-05-16T07:40:11;18.00;58.20
3770;DHT22;1900;48.890;9.190;2023-05-16T07:42:38;17.90;58.00
3770;DHT22;1900;48.890;9.190;2023-05-16T07:45:05;18.00;58.10
3770;DHT22;1900;48.890;9.190;2023-05-16T07:47:31;18.00;58.10
3770;DHT22;1900;48.890;9.190;2023-05-16T07:49:57;18.00;58.40
3770;DHT22;1900;48.890;9.190;2023-05-16T07:52:23;18.00;58.40
3770;DHT22;1900;48.890;9.190;2023-05-16T07:54:48;18.10;58.50
3770;DHT22;1900;48.890;9.190;2023-05-16T07:57:14;18.10;58.50
3770;DHT22;1900;48.890;9.190;2023-05-16T07:59:41;18.10;58.50
3770;DHT22;1900;48.890;9.190;2023-05-16T08:02:07;18.10;58.70
3770;DHT22;1900;48.890;9.190;2023-05-16T08:04:32;18.10;58.50
3770;DHT22;1900;48.890;9.190;2023-05-16T08:06:58;18.10;58.50
3770;DHT22;1900;48.890;9.190;2023-05-16T08:09:24;18.10;58.50
3770;DHT22;1900;48.890;9.190;2023-05-16T08:11:50;18.20;58.70
3770;DHT22;1900;48.890;9.190;2023-05-16T08:14:16;18.20;58.70
3770;DHT22;1900;48.890;9.190;2023-05-16T08:16:42;18.20;58.60
3770;DHT22;1900;48.890;9.190;2023-05-16T08:19:07;18.20;58.70
3770;DHT22;1900;48.890;9.190;2023-05-16T08:21:33;18.20;58.60
3770;DHT22;1900;48.890;9.190;2023-05-16T08:23:59;18.20;58.60
3770;DHT22;1900;48.890;9.190;2023-05-16T08:26:25;18.20;58.60
3770;DHT22;1900;48.890;9.190;2023-05-16T08:28:50;18.20;58.60
3770;DHT22;1900;48.890;9.190;2023-05-16T08:31:17;18.20;58.70
3770;DHT22;1900;48.890;9.190;2023-05-16T08:33:42;18.30;58.90
3770;DHT22;1900;48.890;9.190;2023-05-16T08:36:09;18.30;59.10
3770;DHT22;1900;48.890;9.190;2023-05-16T08:38:34;18.30;59.00
3770;DHT22;1900;48.890;9.190;2023-05-16T08:41:00;18.40;59.10
3770;DHT22;1900;48.890;9.190;2023-05-16T08:43:26;18.40;59.10
3770;DHT22;1900;48.890;9.190;2023-05-16T08:45:52;18.50;59.30
3770;DHT22;1900;48.890;9.190;2023-05-16T08:48:22;18.50;59.30
3770;DHT22;1900;48.890;9.190;2023-05-16T08:50:47;18.50;59.30
3770;DHT22;1900;48.890;9.190;2023-05-16T08:53:14;18.60;59.40
3770;DHT22;1900;48.890;9.190;2023-05-16T08:55:43;18.60;59.30
3770;DHT22;1900;48.890;9.190;2023-05-16T08:58:10;18.60;59.30
3770;DHT22;1900;48.890;9.190;2023-05-16T09:00:37;18.60;59.10
3770;DHT22;1900;48.890;9.190;2023-05-16T09:03:04;18.60;59.00
3770;DHT22;1900;48.890;9.190;2023-05-16T09:05:30;18.60;59.00
3770;DHT22;1900;48.890;9.190;2023-05-16T09:07:56;18.60;59.70
3770;DHT22;1900;48.890;9.190;2023-05-16T09:10:22;18.60;59.10
3770;DHT22;1900;48.890;9.190;2023-05-16T09:12:47;18.60;59.20
3770;DHT22;1900;48.890;9.190;2023-05-16T09:15:13;18.70;59.40
3770;DHT22;1900;48.890;9.190;2023-05-16T09:17:44;18.70;59.40
3770;DHT22;1900;48.890;9.190;2023-05-16T09:20:16;18.70;59.50
3770;DHT22;1900;48.890;9.190;2023-05-16T09:22:55;18.80;59.60
3770;DHT22;1900;48.890;9.190;2023-05-16T09:25:23;18.80;59.70
3770;DHT22;1900;48.890;9.190;2023-05-16T09:27:53;18.80;59.40
3770;DHT22;1900;48.890;9.190;2023-05-16T09:30:26;18.80;59.50
3770;DHT22;1900;48.890;9.190;2023-05-16T09:32:52;18.90;59.70
3770;DHT22;1900;48.890;9.190;2023-05-16T09:35:22;18.90;59.70
3770;DHT22;1900;48.890;9.190;2023-05-16T09:37:49;18.90;59.90
3770;DHT22;1900;48.890;9.190;2023-05-16T09:40:19;19.00;59.80
3770;DHT22;1900;48.890;9.190;2023-05-16T09:42:45;19.00;59.80
3770;DHT22;1900;48.890;9.190;2023-05-16T09:45:12;19.00;59.70
3770;DHT22;1900;48.890;9.190;2023-05-16T09:47:38;19.00;59.60
3770;DHT22;1900;48.890;9.190;2023-05-16T09:50:13;19.10;59.70
3770;DHT22;1900;48.890;9.190;2023-05-16T09:52:41;19.10;59.70
3770;DHT22;1900;48.890;9.190;2023-05-16T09:55:08;19.10;59.70
3770;DHT22;1900;48.890;9.190;2023-05-16T09:57:38;19.10;59.80
3770;DHT22;1900;48.890;9.190;2023-05-16T10:00:09;19.20;59.90
3770;DHT22;1900;48.890;9.190;2023-05-16T10:02:36;19.10;59.80
3770;DHT22;1900;48.890;9.190;2023-05-16T10:05:04;19.20;59.90
3770;DHT22;1900;48.890;9.190;2023-05-16T10:07:31;19.20;60.00
3770;DHT22;1900;48.890;9.190;2023-05-16T10:10:00;19.30;59.90
3770;DHT22;1900;48.890;9.190;2023-05-16T10:12:30;19.30;59.90
3770;DHT22;1900;48.890;9.190;2023-05-16T10:15:01;19.30;60.10
3770;DHT22;1900;48.890;9.190;2023-05-16T10:17:30;19.40;60.10
3770;DHT22;1900;48.890;9.190;2023-05-16T10:20:00;19.40;60.10
3770;DHT22;1900;48.890;9.190;2023-05-16T10:22:32;19.40;59.90
3770;DHT22;1900;48.890;9.190;2023-05-16T10:25:19;19.40;60.00
3770;DHT22;1900;48.890;9.190;2023-05-16T10:27:46;19.40;59.90
3770;DHT22;1900;48.890;9.190;2023-05-16T10:30:13;19.40;59.80
3770;DHT22;1900;48.890;9.190;2023-05-16T10:32:40;19.40;59.80
3770;DHT22;1900;48.890;9.190;2023-05-16T10:35:07;19.40;59.90
3770;DHT22;1900;48.890;9.190;2023-05-16T10:37:33;19.40;59.90
3770;DHT22;1900;48.890;9.190;2023-05-16T10:40:02;19.40;59.90
3770;DHT22;1900;48.890;9.190;2023-05-16T10:42:31;19.40;59.80
3770;DHT22;1900;48.890;9.190;2023-05-16T10:45:19;19.40;59.70
3770;DHT22;1900;48.890;9.190;2023-05-16T10:48:02;19.40;59.70
3770;DHT22;1900;48.890;9.190;2023-05-16T10:50:41;19.40;59.70
3770;DHT22;1900;48.890;9.190;2023-05-16T11:01:19;19.30;60.30
3770;DHT22;1900;48.890;9.190;2023-05-16T11:09:28;19.20;59.60
3770;DHT22;1900;48.890;9.190;2023-05-16T11:12:00;19.20;59.50
3770;DHT22;1900;48.890;9.190;2023-05-16T11:17:19;19.10;59.40
3770;DHT22;1900;48.890;9.190;2023-05-16T11:19:54;19.10;59.40
3770;DHT22;1900;48.890;9.190;2023-05-16T11:22:35;19.00;59.30
3770;DHT22;1900;48.890;9.190;2023-05-16T11:25:07;19.00;59.50
3770;DHT22;1900;48.890;9.190;2023-05-16T11:27:34;18.90;59.50
3770;DHT22;1900;48.890;9.190;2023-05-16T11:32:37;18.90;59.70
3770;DHT22;1900;48.890;9.190;2023-05-16T11:35:07;18.90;59.60
3770;DHT22;1900;48.890;9.190;2023-05-16T11:37:34;18.90;59.70
3770;DHT22;1900;48.890;9.190;2023-05-16T11:40:08;18.90;59.60
3770;DHT22;1900;48.890;9.190;2023-05-16T11:42:39;18.90;59.60
3770;DHT22;1900;48.890;9.190;2023-05-16T11:45:06;18.90;59.50
3770;DHT22;1900;48.890;9.190;2023-05-16T11:47:32;18.90;59.50
3770;DHT22;1900;48.890;9.190;2023-05-16T11:49:58;18.90;59.70
3770;DHT22;1900;48.890;9.190;2023-05-16T11:52:24;18.90;59.50
3770;DHT22;1900;48.890;9.190;2023-05-16T11:54:50;18.90;59.40
3770;DHT22;1900;48.890;9.190;2023-05-16T11:57:16;18.80;59.90
3770;DHT22;1900;48.890;9.190;2023-05-16T11:59:42;18.80;59.30
3770;DHT22;1900;48.890;9.190;2023-05-16T12:02:08;18.80;59.30
3770;DHT22;1900;48.890;9.190;2023-05-16T12:04:35;18.70;59.30
3770;DHT22;1900;48.890;9.190;2023-05-16T12:07:03;18.80;59.50
3770;DHT22;1900;48.890;9.190;2023-05-16T12:09:30;18.80;59.60
3770;DHT22;1900;48.890;9.190;2023-05-16T12:11:56;18.70;59.30
3770;DHT22;1900;48.890;9.190;2023-05-16T12:14:22;18.70;59.80
3770;DHT22;1900;48.890;9.190;2023-05-16T12:16:48;18.70;59.20
3770;DHT22;1900;48.890;9.190;2023-05-16T12:19:15;18.70;59.20
3770;DHT22;1900;48.890;9.190;2023-05-16T12:21:41;18.70;59.20
3770;DHT22;1900;48.890;9.190;2023-05-16T12:24:11;18.60;59.10
3770;DHT22;1900;48.890;9.190;2023-05-16T12:26:39;18.60;59.10
3770;DHT22;1900;48.890;9.190;2023-05-16T12:29:05;18.60;59.10
3770;DHT22;1900;48.890;9.190;2023-05-16T12:31:35;18.60;59.10
3770;DHT22;1900;48.890;9.190;2023-05-16T12:34:01;18.60;59.10
3770;DHT22;1900;48.890;9.190;2023-05-16T12:36:31;18.50;59.00
3770;DHT22;1900;48.890;9.190;2023-05-16T12:39:02;18.50;59.10
3770;DHT22;1900;48.890;9.190;2023-05-16T12:41:29;18.50;59.10
3770;DHT22;1900;48.890;9.190;2023-05-16T12:44:15;18.50;59.10
3770;DHT22;1900;48.890;9.190;2023-05-16T12:46:51;18.50;59.20
3770;DHT22;1900;48.890;9.190;2023-05-16T12:49:20;18.50;59.20
3770;DHT22;1900;48.890;9.190;2023-05-16T12:51:51;18.50;59.00
3770;DHT22;1900;48.890;9.190;2023-05-16T12:54:18;18.40;58.90
3770;DHT22;1900;48.890;9.190;2023-05-16T12:56:43;18.40;58.90
3770;DHT22;1900;48.890;9.190;2023-05-16T12:59:10;18.40;58.90
3770;DHT22;1900;48.890;9.190;2023-05-16T13:01:37;18.40;59.00
3770;DHT22;1900;48.890;9.190;2023-05-16T13:04:03;18.40;59.00
3770;DHT22;1900;48.890;9.190;2023-05-16T13:06:29;18.30;58.90
3770;DHT22;1900;48.890;9.190;2023-05-16T13:08:54;18.30;58.80
3770;DHT22;1900;48.890;9.190;2023-05-16T13:11:20;18.30;58.80
3770;DHT22;1900;48.890;9.190;2023-05-16T13:13:46;18.30;58.90
3770;DHT22;1900;48.890;9.190;2023-05-16T13:16:12;18.30;58.90
3770;DHT22;1900;48.890;9.190;2023-05-16T13:18:38;18.30;58.90
3770;DHT22;1900;48.890;9.190;2023-05-16T13:21:03;18.30;58.90
3770;DHT22;1900;48.890;9.190;2023-05-16T13:23:29;18.20;58.80
3770;DHT22;1900;48.890;9.190;2023-05-16T13:25:55;18.20;59.40
3770;DHT22;1900;48.890;9.190;2023-05-16T13:28:21;18.20;58.80
3770;DHT22;1900;48.890;9.190;2023-05-16T13:30:47;18.20;58.90
3770;DHT22;1900;48.890;9.190;2023-05-16T13:33:12;18.20;58.90
3770;DHT22;1900;48.890;9.190;2023-05-16T13:35:38;18.20;58.90
3770;DHT22;1900;48.890;9.190;2023-05-16T13:38:04;18.20;58.90
3770;DHT22;1900;48.890;9.190;2023-05-16T13:40:29;18.10;58.80
3770;DHT22;1900;48.890;9.190;2023-05-16T13:42:56;18.10;58.80
3770;DHT22;1900;48.890;9.190;2023-05-16T13:45:22;18.10;58.80
3770;DHT22;1900;48.890;9.190;2023-05-16T13:47:48;18.10;58.80
3770;DHT22;1900;48.890;9.190;2023-05-16T13:50:13;18.10;58.80
3770;DHT22;1900;48.890;9.190;2023-05-16T13:52:39;18.10;58.80
3770;DHT22;1900;48.890;9.190;2023-05-16T13:55:05;18.10;58.70
3770;DHT22;1900;48.890;9.190;2023-05-16T13:57:31;18.10;58.70
3770;DHT22;1900;48.890;9.190;2023-05-16T13:59:58;18.10;58.70
3770;DHT22;1900;48.890;9.190;2023-05-16T14:02:24;18.00;58.70
3770;DHT22;1900;48.890;9.190;2023-05-16T14:04:51;18.00;58.70
3770;DHT22;1900;48.890;9.190;2023-05-16T14:07:17;18.00;58.70
3770;DHT22;1900;48.890;9.190;2023-05-16T14:09:43;18.00;58.80
3770;DHT22;1900;48.890;9.190;2023-05-16T14:12:10;18.00;58.90
3770;DHT22;1900;48.890;9.190;2023-05-16T14:14:36;18.00;58.90
3770;DHT22;1900;48.890;9.190;2023-05-16T14:17:02;18.10;59.00
3770;DHT22;1900;48.890;9.190;2023-05-16T14:19:29;18.10;59.00
3770;DHT22;1900;48.890;9.190;2023-05-16T14:21:55;18.10;58.90
3770;DHT22;1900;48.890;9.190;2023-05-16T14:24:21;18.10;58.90
3770;DHT22;1900;48.890;9.190;2023-05-16T14:26:47;18.10;58.90
3770;DHT22;1900;48.890;9.190;2023-05-16T14:29:12;18.10;58.90
3770;DHT22;1900;48.890;9.190;2023-05-16T14:31:39;18.10;59.00
3770;DHT22;1900;48.890;9.190;2023-05-16T14:34:05;18.10;58.90
3770;DHT22;1900;48.890;9.190;2023-05-16T14:36:30;18.10;58.90
3770;DHT22;1900;48.890;9.190;2023-05-16T14:38:57;18.10;58.80
3770;DHT22;1900;48.890;9.190;2023-05-16T14:41:23;18.10;58.80
3770;DHT22;1900;48.890;9.190;2023-05-16T14:43:49;18.10;58.80
3770;DHT22;1900;48.890;9.190;2023-05-16T14:46:15;18.20;58.90
3770;DHT22;1900;48.890;9.190;2023-05-16T14:48:41;18.20;58.90
3770;DHT22;1900;48.890;9.190;2023-05-16T14:51:07;18.20;58.90
3770;DHT22;1900;48.890;9.190;2023-05-16T14:53:33;18.20;58.90
3770;DHT22;1900;48.890;9.190;2023-05-16T14:55:58;18.20;58.90
3770;DHT22;1900;48.890;9.190;2023-05-16T14:58:24;18.20;58.90
3770;DHT22;1900;48.890;9.190;2023-05-16T15:00:50;18.20;58.80
3770;DHT22;1900;48.890;9.190;2023-05-16T15:03:16;18.20;58.80
3770;DHT22;1900;48.890;9.190;2023-05-16T15:05:44;18.30;58.90
3770;DHT22;1900;48.890;9.190;2023-05-16T15:08:10;18.30;58.90
3770;DHT22;1900;48.890;9.190;2023-05-16T15:10:36;18.30;58.90
3770;DHT22;1900;48.890;9.190;2023-05-16T15:13:01;18.30;58.90
3770;DHT22;1900;48.890;9.190;2023-05-16T15:15:27;18.30;58.80
3770;DHT22;1900;48.890;9.190;2023-05-16T15:17:53;18.30;58.90
3770;DHT22;1900;48.890;9.190;2023-05-16T15:20:19;18.40;59.00
3770;DHT22;1900;48.890;9.190;2023-05-16T15:22:45;18.40;58.90
3770;DHT22;1900;48.890;9.190;2023-05-16T15:25:11;18.40;58.80
3770;DHT22;1900;48.890;9.190;2023-05-16T15:27:37;18.40;58.70
3770;DHT22;1900;48.890;9.190;2023-05-16T15:30:03;18.40;58.80
3770;DHT22;1900;48.890;9.190;2023-05-16T15:32:29;18.40;58.80
3770;DHT22;1900;48.890;9.190;2023-05-16T15:34:55;18.40;58.80
3770;DHT22;1900;48.890;9.190;2023-05-16T15:37:20;18.50;59.00
3770;DHT22;1900;48.890;9.190;2023-05-16T15:39:46;18.50;59.00
3770;DHT22;1900;48.890;9.190;2023-05-16T15:42:12;18.50;59.00
3770;DHT22;1900;48.890;9.190;2023-05-16T15:44:38;18.50;58.90
3770;DHT22;1900;48.890;9.190;2023-05-16T15:47:05;18.50;58.80
3770;DHT22;1900;48.890;9.190;2023-05-16T15:49:30;18.50;58.60
3770;DHT22;1900;48.890;9.190;2023-05-16T15:51:56;18.50;58.50
3770;DHT22;1900;48.890;9.190;2023-05-16T15:54:22;18.50;58.50
3770;DHT22;1900;48.890;9.190;2023-05-16T15:56:47;18.50;58.40
3770;DHT22;1900;48.890;9.190;2023-05-16T15:59:13;18.50;58.30
3770;DHT22;1900;48.890;9.190;2023-05-16T16:01:39;18.50;58.20
3770;DHT22;1900;48.890;9.190;2023-05-16T16:04:05;18.50;58.30
3770;DHT22;1900;48.890;9.190;2023-05-16T16:06:31;18.50;58.30
3770;DHT22;1900;48.890;9.190;2023-05-16T16:08:57;18.50;58.30
3770;DHT22;1900;48.890;9.190;2023-05-16T16:11:22;18.40;58.10
3770;DHT22;1900;48.890;9.190;2023-05-16T16:13:49;18.40;58.10
3770;DHT22;1900;48.890;9.190;2023-05-16T16:16:15;18.40;58.10
3770;DHT22;1900;48.890;9.190;2023-05-16T16:18:41;18.40;58.10
3770;DHT22;1900;48.890;9.190;2023-05-16T16:21:10;18.40;58.10
3770;DHT22;1900;48.890;9.190;2023-05-16T16:23:36;18.40;58.10
3770;DHT22;1900;48.890;9.190;2023-05-16T16:26:03;18.40;58.00
3770;DHT22;1900;48.890;9.190;2023-05-16T16:28:28;18.40;58.00
3770;DHT22;1900;48.890;9.190;2023-05-16T16:30:54;18.40;58.00
3770;DHT22;1900;48.890;9.190;2023-05-16T16:33:20;18.40;58.00